AAL2689 KPHX-KLAX
Flight info
| Callsign | AAL2689 |
|---|---|
| Flight time | 0h 56m |
| Altitude | 28000 |
| Route | KEENS3 WLVRN ESTWD HLYWD1 |
| Aircraft | A321/M-SDE3GIRWY/LB2 |
Departure
| Time | 2026-05-05 23:19 |
|---|---|
| Airport | Phoenix Sky Harbor International Airport (KPHX) |
Arrival
| Time | 2026-05-06 00:15 |
|---|---|
| Airport | Los Angeles International Airport (KLAX) |
| Time | Latitude | Longitude | Altitude | Speed | Heading |
|---|---|---|---|---|---|
| 2026-05-05 22:56 | 33.43832 | -111.99659 | 1118 ft | 0 kts | 211° |
| 2026-05-05 23:11 | 33.43841 | -111.99652 | 1112 ft | 4 kts | 211° |
| 2026-05-05 23:11 | 33.43860 | -111.99637 | 1116 ft | 4 kts | 228° |
| 2026-05-05 23:11 | 33.43871 | -111.99611 | 1117 ft | 4 kts | 271° |
| 2026-05-05 23:11 | 33.43865 | -111.99584 | 1116 ft | 4 kts | 321° |
| 2026-05-05 23:12 | 33.43843 | -111.99576 | 1120 ft | 4 kts | 0° |
| 2026-05-05 23:12 | 33.43815 | -111.99576 | 1123 ft | 4 kts | 0° |
| 2026-05-05 23:12 | 33.43791 | -111.99576 | 1119 ft | 1 kts | 0° |
| 2026-05-05 23:12 | 33.43770 | -111.99577 | 1119 ft | 1 kts | 0° |
| 2026-05-05 23:13 | 33.43769 | -111.99577 | 1119 ft | 0 kts | 0° |
| 2026-05-05 23:15 | 33.43779 | -111.99576 | 1119 ft | 5 kts | 0° |
| 2026-05-05 23:15 | 33.43849 | -111.99576 | 1120 ft | 12 kts | 0° |
| 2026-05-05 23:15 | 33.43905 | -111.99548 | 1124 ft | 8 kts | 78° |
| 2026-05-05 23:15 | 33.43901 | -111.99453 | 1126 ft | 15 kts | 91° |
| 2026-05-05 23:16 | 33.43903 | -111.99312 | 1126 ft | 17 kts | 89° |
| 2026-05-05 23:16 | 33.43850 | -111.99226 | 1117 ft | 15 kts | 175° |
| 2026-05-05 23:16 | 33.43737 | -111.99227 | 1118 ft | 17 kts | 180° |
| 2026-05-05 23:16 | 33.43614 | -111.99227 | 1119 ft | 18 kts | 180° |
| 2026-05-05 23:17 | 33.43483 | -111.99229 | 1119 ft | 19 kts | 181° |
| 2026-05-05 23:17 | 33.43348 | -111.99230 | 1120 ft | 20 kts | 180° |
| 2026-05-05 23:17 | 33.43223 | -111.99252 | 1118 ft | 16 kts | 212° |
| 2026-05-05 23:17 | 33.43149 | -111.99331 | 1137 ft | 13 kts | 223° |
| 2026-05-05 23:18 | 33.43104 | -111.99393 | 1133 ft | 11 kts | 269° |
| 2026-05-05 23:18 | 33.43104 | -111.99620 | 1133 ft | 59 kts | 270° |
| 2026-05-05 23:18 | 33.43105 | -112.00404 | 1132 ft | 126 kts | 270° |
| 2026-05-05 23:18 | 33.43106 | -112.01643 | 1369 ft | 156 kts | 269° |
| 2026-05-05 23:19 | 33.43101 | -112.02922 | 2136 ft | 153 kts | 266° |
| 2026-05-05 23:19 | 33.43036 | -112.04221 | 2653 ft | 164 kts | 264° |
| 2026-05-05 23:19 | 33.42953 | -112.05669 | 2920 ft | 185 kts | 264° |
| 2026-05-05 23:19 | 33.42858 | -112.07293 | 3139 ft | 207 kts | 262° |
| 2026-05-05 23:20 | 33.42418 | -112.09034 | 3367 ft | 231 kts | 248° |
| 2026-05-05 23:20 | 33.41810 | -112.10902 | 3832 ft | 248 kts | 249° |
| 2026-05-05 23:20 | 33.41186 | -112.12854 | 4557 ft | 254 kts | 249° |
| 2026-05-05 23:20 | 33.40557 | -112.14845 | 5322 ft | 257 kts | 249° |
| 2026-05-05 23:21 | 33.39929 | -112.16846 | 6183 ft | 257 kts | 249° |
| 2026-05-05 23:21 | 33.39331 | -112.18871 | 6976 ft | 259 kts | 256° |
| 2026-05-05 23:21 | 33.39223 | -112.21038 | 7687 ft | 266 kts | 276° |
| 2026-05-05 23:21 | 33.39531 | -112.23232 | 7951 ft | 267 kts | 278° |
| 2026-05-05 23:22 | 33.39864 | -112.25415 | 8020 ft | 268 kts | 279° |
| 2026-05-05 23:22 | 33.40203 | -112.27615 | 8024 ft | 269 kts | 279° |
| 2026-05-05 23:22 | 33.40540 | -112.29810 | 8027 ft | 267 kts | 278° |
| 2026-05-05 23:22 | 33.40875 | -112.32001 | 8026 ft | 269 kts | 279° |
| 2026-05-05 23:23 | 33.41208 | -112.34209 | 8028 ft | 270 kts | 279° |
| 2026-05-05 23:23 | 33.41537 | -112.36422 | 8031 ft | 271 kts | 278° |
| 2026-05-05 23:23 | 33.41864 | -112.38646 | 8066 ft | 273 kts | 278° |
| 2026-05-05 23:23 | 33.42195 | -112.40901 | 8804 ft | 275 kts | 278° |
| 2026-05-05 23:24 | 33.42528 | -112.43161 | 9642 ft | 276 kts | 278° |
| 2026-05-05 23:24 | 33.42862 | -112.45434 | 10293 ft | 284 kts | 278° |
| 2026-05-05 23:24 | 33.43218 | -112.47852 | 10481 ft | 306 kts | 279° |
| 2026-05-05 23:24 | 33.43603 | -112.50452 | 10655 ft | 326 kts | 279° |
| 2026-05-05 23:25 | 33.44002 | -112.53158 | 11138 ft | 334 kts | 279° |
| 2026-05-05 23:25 | 33.44406 | -112.55912 | 11785 ft | 337 kts | 278° |
| 2026-05-05 23:25 | 33.44814 | -112.58684 | 12501 ft | 339 kts | 278° |
| 2026-05-05 23:25 | 33.45045 | -112.61492 | 13143 ft | 341 kts | 269° |
| 2026-05-05 23:26 | 33.45073 | -112.64347 | 13749 ft | 345 kts | 269° |
| 2026-05-05 23:26 | 33.45106 | -112.67242 | 14313 ft | 349 kts | 269° |
| 2026-05-05 23:26 | 33.45142 | -112.70161 | 14882 ft | 352 kts | 269° |
| 2026-05-05 23:26 | 33.45181 | -112.73104 | 15464 ft | 355 kts | 269° |
| 2026-05-05 23:27 | 33.45221 | -112.76070 | 16062 ft | 358 kts | 269° |
| 2026-05-05 23:27 | 33.45374 | -112.79055 | 16633 ft | 362 kts | 277° |
| 2026-05-05 23:27 | 33.45986 | -112.81993 | 17200 ft | 367 kts | 288° |
| 2026-05-05 23:27 | 33.46970 | -112.84824 | 17754 ft | 370 kts | 291° |
| 2026-05-05 23:28 | 33.47983 | -112.87678 | 18275 ft | 373 kts | 291° |
| 2026-05-05 23:28 | 33.48993 | -112.90555 | 18744 ft | 376 kts | 290° |
| 2026-05-05 23:28 | 33.50003 | -112.93450 | 19241 ft | 378 kts | 290° |
| 2026-05-05 23:28 | 33.51014 | -112.96357 | 19761 ft | 378 kts | 290° |
| 2026-05-05 23:29 | 33.52028 | -112.99269 | 20301 ft | 379 kts | 289° |
| 2026-05-05 23:29 | 33.53046 | -113.02184 | 20819 ft | 379 kts | 289° |
| 2026-05-05 23:29 | 33.54069 | -113.05113 | 21248 ft | 384 kts | 290° |
| 2026-05-05 23:29 | 33.55104 | -113.08083 | 21653 ft | 388 kts | 290° |
| 2026-05-05 23:30 | 33.56145 | -113.11076 | 22122 ft | 390 kts | 290° |
| 2026-05-05 23:30 | 33.56839 | -113.13069 | 22407 ft | 393 kts | 290° |
| 2026-05-05 23:30 | 33.58252 | -113.17133 | 22989 ft | 396 kts | 290° |
| 2026-05-05 23:30 | 33.59318 | -113.20202 | 23436 ft | 399 kts | 290° |
| 2026-05-05 23:31 | 33.60384 | -113.23274 | 23821 ft | 401 kts | 290° |
| 2026-05-05 23:31 | 33.61456 | -113.26367 | 24233 ft | 402 kts | 289° |
| 2026-05-05 23:31 | 33.62530 | -113.29466 | 24644 ft | 403 kts | 288° |
| 2026-05-05 23:31 | 33.63603 | -113.32572 | 25062 ft | 403 kts | 288° |
| 2026-05-05 23:32 | 33.64661 | -113.35639 | 25466 ft | 404 kts | 287° |
| 2026-05-05 23:32 | 33.65734 | -113.38751 | 25883 ft | 404 kts | 287° |
| 2026-05-05 23:32 | 33.66812 | -113.41872 | 26276 ft | 405 kts | 286° |
| 2026-05-05 23:32 | 33.67891 | -113.44995 | 26736 ft | 406 kts | 287° |
| 2026-05-05 23:33 | 33.68976 | -113.48142 | 27055 ft | 409 kts | 287° |
| 2026-05-05 23:33 | 33.70064 | -113.51308 | 27415 ft | 411 kts | 286° |
| 2026-05-05 23:33 | 33.71153 | -113.54483 | 27790 ft | 412 kts | 286° |
| 2026-05-05 23:33 | 33.72240 | -113.57661 | 27921 ft | 410 kts | 285° |
| 2026-05-05 23:34 | 33.73319 | -113.60791 | 27954 ft | 403 kts | 285° |
| 2026-05-05 23:34 | 33.74385 | -113.63888 | 27947 ft | 400 kts | 285° |
| 2026-05-05 23:34 | 33.75443 | -113.66976 | 27864 ft | 399 kts | 285° |
| 2026-05-05 23:34 | 33.76497 | -113.70060 | 27869 ft | 399 kts | 285° |
| 2026-05-05 23:35 | 33.77550 | -113.73152 | 27869 ft | 399 kts | 285° |
| 2026-05-05 23:35 | 33.78597 | -113.76237 | 27879 ft | 399 kts | 286° |
| 2026-05-05 23:35 | 33.79650 | -113.79332 | 27873 ft | 400 kts | 286° |
| 2026-05-05 23:35 | 33.80705 | -113.82428 | 27873 ft | 400 kts | 286° |
| 2026-05-05 23:36 | 33.81761 | -113.85524 | 27867 ft | 400 kts | 286° |
| 2026-05-05 23:36 | 33.82815 | -113.88622 | 27873 ft | 400 kts | 286° |
| 2026-05-05 23:36 | 33.83869 | -113.91721 | 27877 ft | 401 kts | 287° |
| 2026-05-05 23:36 | 33.84926 | -113.94826 | 27859 ft | 402 kts | 287° |
| 2026-05-05 23:37 | 33.85986 | -113.97938 | 27850 ft | 403 kts | 287° |
| 2026-05-05 23:37 | 33.87045 | -114.01061 | 27846 ft | 404 kts | 287° |
| 2026-05-05 23:37 | 33.88102 | -114.04194 | 27844 ft | 405 kts | 287° |
| 2026-05-05 23:37 | 33.89159 | -114.07337 | 27853 ft | 405 kts | 287° |
| 2026-05-05 23:38 | 33.89859 | -114.09419 | 27849 ft | 405 kts | 287° |
| 2026-05-05 23:38 | 33.90727 | -114.12625 | 27849 ft | 401 kts | 279° |
| 2026-05-05 23:38 | 33.91294 | -114.15910 | 27853 ft | 401 kts | 277° |
| 2026-05-05 23:38 | 33.91851 | -114.19196 | 27854 ft | 401 kts | 277° |
| 2026-05-05 23:39 | 33.92411 | -114.22486 | 27858 ft | 401 kts | 278° |
| 2026-05-05 23:39 | 33.92972 | -114.25778 | 27859 ft | 401 kts | 278° |
| 2026-05-05 23:39 | 33.93530 | -114.29069 | 27858 ft | 402 kts | 277° |
| 2026-05-05 23:39 | 33.94087 | -114.32366 | 27861 ft | 402 kts | 277° |
| 2026-05-05 23:40 | 33.94642 | -114.35660 | 27855 ft | 402 kts | 277° |
| 2026-05-05 23:40 | 33.95196 | -114.38958 | 27869 ft | 402 kts | 277° |
| 2026-05-05 23:40 | 33.95748 | -114.42257 | 27868 ft | 402 kts | 278° |
| 2026-05-05 23:40 | 33.96300 | -114.45557 | 27863 ft | 402 kts | 278° |
| 2026-05-05 23:41 | 33.96854 | -114.48864 | 27858 ft | 403 kts | 278° |
| 2026-05-05 23:41 | 33.97411 | -114.52181 | 27850 ft | 405 kts | 279° |
| 2026-05-05 23:41 | 33.97971 | -114.55513 | 27845 ft | 406 kts | 279° |
| 2026-05-05 23:41 | 33.98531 | -114.58851 | 27845 ft | 407 kts | 279° |
| 2026-05-05 23:42 | 33.99091 | -114.62197 | 27847 ft | 408 kts | 279° |
| 2026-05-05 23:42 | 33.99653 | -114.65548 | 27849 ft | 409 kts | 279° |
| 2026-05-05 23:42 | 34.00212 | -114.68906 | 27853 ft | 409 kts | 278° |
| 2026-05-05 23:42 | 34.00769 | -114.72266 | 27856 ft | 409 kts | 278° |
| 2026-05-05 23:43 | 34.01324 | -114.75630 | 27856 ft | 409 kts | 278° |
| 2026-05-05 23:43 | 34.01876 | -114.78993 | 27861 ft | 409 kts | 278° |
| 2026-05-05 23:43 | 34.02428 | -114.82358 | 27864 ft | 409 kts | 278° |
| 2026-05-05 23:43 | 34.02980 | -114.85720 | 27862 ft | 409 kts | 278° |
| 2026-05-05 23:44 | 34.03531 | -114.89085 | 27864 ft | 409 kts | 278° |
| 2026-05-05 23:44 | 34.04081 | -114.92451 | 27865 ft | 409 kts | 278° |
| 2026-05-05 23:44 | 34.04630 | -114.95815 | 27867 ft | 409 kts | 278° |
| 2026-05-05 23:44 | 34.05179 | -114.99183 | 27868 ft | 409 kts | 278° |
| 2026-05-05 23:45 | 34.05726 | -115.02545 | 27878 ft | 409 kts | 279° |
| 2026-05-05 23:45 | 34.06275 | -115.05912 | 27871 ft | 409 kts | 279° |
| 2026-05-05 23:45 | 34.06825 | -115.09280 | 27874 ft | 409 kts | 279° |
| 2026-05-05 23:45 | 34.07370 | -115.12608 | 27854 ft | 411 kts | 280° |
| 2026-05-05 23:46 | 34.07921 | -115.15992 | 27850 ft | 412 kts | 280° |
| 2026-05-05 23:46 | 34.08473 | -115.19388 | 27847 ft | 413 kts | 280° |
| 2026-05-05 23:46 | 34.09025 | -115.22795 | 27844 ft | 414 kts | 280° |
| 2026-05-05 23:46 | 34.09579 | -115.26210 | 27847 ft | 415 kts | 280° |
| 2026-05-05 23:47 | 34.10132 | -115.29631 | 27848 ft | 416 kts | 280° |
| 2026-05-05 23:47 | 34.10685 | -115.33060 | 27857 ft | 416 kts | 280° |
| 2026-05-05 23:47 | 34.11242 | -115.36536 | 27851 ft | 417 kts | 280° |
| 2026-05-05 23:47 | 34.11783 | -115.39926 | 27864 ft | 417 kts | 280° |
| 2026-05-05 23:48 | 34.12329 | -115.43365 | 27862 ft | 418 kts | 280° |
| 2026-05-05 23:48 | 34.12877 | -115.46809 | 27865 ft | 418 kts | 280° |
| 2026-05-05 23:48 | 34.13425 | -115.50254 | 27864 ft | 418 kts | 280° |
| 2026-05-05 23:48 | 34.13974 | -115.53702 | 27873 ft | 418 kts | 280° |
| 2026-05-05 23:49 | 34.14522 | -115.57149 | 27874 ft | 418 kts | 280° |
| 2026-05-05 23:49 | 34.15069 | -115.60597 | 27871 ft | 418 kts | 280° |
| 2026-05-05 23:49 | 34.15617 | -115.64047 | 27875 ft | 419 kts | 280° |
| 2026-05-05 23:49 | 34.16105 | -115.67512 | 27885 ft | 418 kts | 275° |
| 2026-05-05 23:50 | 34.16173 | -115.71014 | 27885 ft | 418 kts | 266° |
| 2026-05-05 23:50 | 34.15857 | -115.74505 | 27885 ft | 418 kts | 263° |
| 2026-05-05 23:50 | 34.15512 | -115.77996 | 27889 ft | 419 kts | 263° |
| 2026-05-05 23:50 | 34.15171 | -115.81490 | 27892 ft | 420 kts | 264° |
| 2026-05-05 23:51 | 34.14833 | -115.85002 | 27893 ft | 421 kts | 264° |
| 2026-05-05 23:51 | 34.14497 | -115.88517 | 27905 ft | 422 kts | 264° |
| 2026-05-05 23:51 | 34.14161 | -115.92037 | 27915 ft | 423 kts | 264° |
| 2026-05-05 23:51 | 34.13818 | -115.95566 | 27922 ft | 423 kts | 264° |
| 2026-05-05 23:52 | 34.13471 | -115.99095 | 27930 ft | 424 kts | 264° |
| 2026-05-05 23:52 | 34.13122 | -116.02637 | 27930 ft | 425 kts | 264° |
| 2026-05-05 23:52 | 34.12774 | -116.06182 | 27933 ft | 426 kts | 264° |
| 2026-05-05 23:52 | 34.12424 | -116.09732 | 27937 ft | 427 kts | 264° |
| 2026-05-05 23:53 | 34.12073 | -116.13292 | 27939 ft | 427 kts | 264° |
| 2026-05-05 23:53 | 34.11724 | -116.16854 | 27945 ft | 427 kts | 264° |
| 2026-05-05 23:53 | 34.11374 | -116.20414 | 27950 ft | 428 kts | 264° |
| 2026-05-05 23:53 | 34.11018 | -116.23980 | 27951 ft | 428 kts | 264° |
| 2026-05-05 23:54 | 34.10660 | -116.27543 | 27917 ft | 428 kts | 264° |
| 2026-05-05 23:54 | 34.10301 | -116.31100 | 27921 ft | 428 kts | 264° |
| 2026-05-05 23:54 | 34.09931 | -116.34662 | 27927 ft | 428 kts | 264° |
| 2026-05-05 23:54 | 34.09552 | -116.38219 | 27933 ft | 427 kts | 264° |
| 2026-05-05 23:55 | 34.09170 | -116.41774 | 27933 ft | 427 kts | 264° |
| 2026-05-05 23:55 | 34.08787 | -116.45328 | 27935 ft | 427 kts | 264° |
| 2026-05-05 23:55 | 34.08402 | -116.48875 | 27936 ft | 427 kts | 263° |
| 2026-05-05 23:55 | 34.08015 | -116.52425 | 27942 ft | 427 kts | 263° |
| 2026-05-05 23:56 | 34.07628 | -116.55975 | 27939 ft | 427 kts | 264° |
| 2026-05-05 23:56 | 34.07240 | -116.59517 | 27942 ft | 426 kts | 264° |
| 2026-05-05 23:56 | 34.06881 | -116.63040 | 27846 ft | 418 kts | 264° |
| 2026-05-05 23:56 | 34.06555 | -116.66496 | 27282 ft | 412 kts | 265° |
| 2026-05-05 23:57 | 34.06250 | -116.69916 | 26675 ft | 408 kts | 266° |
| 2026-05-05 23:57 | 34.05952 | -116.73308 | 26006 ft | 406 kts | 266° |
| 2026-05-05 23:57 | 34.05654 | -116.76684 | 25474 ft | 402 kts | 265° |
| 2026-05-05 23:57 | 34.05351 | -116.80016 | 24960 ft | 398 kts | 265° |
| 2026-05-05 23:58 | 34.05043 | -116.83313 | 24463 ft | 393 kts | 266° |
| 2026-05-05 23:58 | 34.04736 | -116.86580 | 23920 ft | 391 kts | 265° |
| 2026-05-05 23:58 | 34.04429 | -116.89783 | 23411 ft | 389 kts | 265° |
| 2026-05-05 23:58 | 34.04098 | -116.93041 | 22830 ft | 396 kts | 264° |
| 2026-05-05 23:59 | 34.03706 | -116.96310 | 22259 ft | 393 kts | 263° |
| 2026-05-05 23:59 | 34.03257 | -116.99540 | 21708 ft | 388 kts | 262° |
| 2026-05-05 23:59 | 34.02780 | -117.02726 | 21161 ft | 385 kts | 262° |
| 2026-05-05 23:59 | 34.02319 | -117.05886 | 20623 ft | 381 kts | 263° |
| 2026-05-06 00:00 | 34.01911 | -117.09026 | 20094 ft | 377 kts | 263° |
| 2026-05-06 00:00 | 34.01542 | -117.12133 | 19698 ft | 371 kts | 264° |
| 2026-05-06 00:00 | 34.01193 | -117.15213 | 19451 ft | 369 kts | 264° |
| 2026-05-06 00:00 | 34.00850 | -117.18246 | 19051 ft | 362 kts | 264° |
| 2026-05-06 00:01 | 34.00507 | -117.21229 | 18639 ft | 358 kts | 264° |
| 2026-05-06 00:01 | 34.00160 | -117.24185 | 18151 ft | 355 kts | 264° |
| 2026-05-06 00:01 | 33.99812 | -117.27116 | 17649 ft | 351 kts | 264° |
| 2026-05-06 00:01 | 33.99464 | -117.30012 | 17173 ft | 347 kts | 264° |
| 2026-05-06 00:02 | 33.99121 | -117.32877 | 16688 ft | 344 kts | 264° |
| 2026-05-06 00:02 | 33.98786 | -117.35711 | 16217 ft | 340 kts | 264° |
| 2026-05-06 00:02 | 33.98458 | -117.38513 | 15748 ft | 336 kts | 264° |
| 2026-05-06 00:02 | 33.98132 | -117.41285 | 15274 ft | 332 kts | 263° |
| 2026-05-06 00:03 | 33.97807 | -117.44026 | 14812 ft | 329 kts | 264° |
| 2026-05-06 00:03 | 33.97489 | -117.46738 | 14346 ft | 325 kts | 265° |
| 2026-05-06 00:03 | 33.97431 | -117.49430 | 13886 ft | 320 kts | 277° |
| 2026-05-06 00:03 | 33.97819 | -117.52063 | 13355 ft | 320 kts | 284° |
| 2026-05-06 00:04 | 33.98297 | -117.54685 | 12858 ft | 321 kts | 283° |
| 2026-05-06 00:04 | 33.98765 | -117.57306 | 12369 ft | 319 kts | 283° |
| 2026-05-06 00:04 | 33.99223 | -117.59913 | 11882 ft | 317 kts | 283° |
| 2026-05-06 00:04 | 33.99675 | -117.62504 | 11393 ft | 315 kts | 284° |
| 2026-05-06 00:05 | 34.00533 | -117.67650 | 10419 ft | 313 kts | 278° |
| 2026-05-06 00:05 | 34.00499 | -117.70259 | 10145 ft | 307 kts | 265° |
| 2026-05-06 00:05 | 34.00241 | -117.72762 | 9969 ft | 296 kts | 266° |
| 2026-05-06 00:06 | 34.00000 | -117.75200 | 9749 ft | 289 kts | 266° |
| 2026-05-06 00:06 | 33.99767 | -117.77607 | 9530 ft | 289 kts | 266° |
| 2026-05-06 00:06 | 33.99537 | -117.80003 | 9172 ft | 287 kts | 266° |
| 2026-05-06 00:06 | 33.99307 | -117.82380 | 8810 ft | 284 kts | 266° |
| 2026-05-06 00:07 | 33.99078 | -117.84737 | 8454 ft | 282 kts | 265° |
| 2026-05-06 00:07 | 33.98852 | -117.87073 | 8099 ft | 280 kts | 266° |
| 2026-05-06 00:07 | 33.98627 | -117.89395 | 7733 ft | 278 kts | 265° |
| 2026-05-06 00:07 | 33.98403 | -117.91695 | 7385 ft | 275 kts | 265° |
| 2026-05-06 00:08 | 33.98179 | -117.93965 | 7041 ft | 272 kts | 264° |
| 2026-05-06 00:08 | 33.97956 | -117.96226 | 6699 ft | 272 kts | 265° |
| 2026-05-06 00:08 | 33.97733 | -117.98492 | 6352 ft | 273 kts | 264° |
| 2026-05-06 00:08 | 33.97511 | -118.00732 | 5994 ft | 272 kts | 264° |
| 2026-05-06 00:09 | 33.97286 | -118.02997 | 5639 ft | 262 kts | 264° |
| 2026-05-06 00:09 | 33.97077 | -118.05096 | 5327 ft | 243 kts | 263° |
| 2026-05-06 00:09 | 33.96883 | -118.07048 | 5048 ft | 229 kts | 263° |
| 2026-05-06 00:09 | 33.96692 | -118.08966 | 4760 ft | 232 kts | 263° |
| 2026-05-06 00:10 | 33.96500 | -118.10892 | 4454 ft | 230 kts | 263° |
| 2026-05-06 00:10 | 33.96311 | -118.12792 | 4148 ft | 227 kts | 263° |
| 2026-05-06 00:10 | 33.96123 | -118.14680 | 3855 ft | 226 kts | 263° |
| 2026-05-06 00:10 | 33.95941 | -118.16507 | 3564 ft | 212 kts | 263° |
| 2026-05-06 00:11 | 33.95771 | -118.18203 | 3319 ft | 200 kts | 263° |
| 2026-05-06 00:11 | 33.95605 | -118.19843 | 3072 ft | 194 kts | 262° |
| 2026-05-06 00:11 | 33.95443 | -118.21447 | 2813 ft | 192 kts | 262° |
| 2026-05-06 00:11 | 33.95286 | -118.23000 | 2571 ft | 182 kts | 262° |
| 2026-05-06 00:12 | 33.95138 | -118.24466 | 2340 ft | 169 kts | 262° |
| 2026-05-06 00:12 | 33.95000 | -118.25819 | 2174 ft | 159 kts | 262° |
| 2026-05-06 00:12 | 33.94866 | -118.27128 | 1976 ft | 157 kts | 262° |
| 2026-05-06 00:12 | 33.94734 | -118.28430 | 1767 ft | 156 kts | 262° |
| 2026-05-06 00:13 | 33.94606 | -118.29701 | 1562 ft | 147 kts | 262° |
| 2026-05-06 00:13 | 33.94488 | -118.30868 | 1375 ft | 138 kts | 261° |
| 2026-05-06 00:13 | 33.94375 | -118.31981 | 1190 ft | 131 kts | 261° |
| 2026-05-06 00:13 | 33.94264 | -118.33072 | 1008 ft | 134 kts | 262° |
| 2026-05-06 00:14 | 33.94152 | -118.34170 | 820 ft | 131 kts | 262° |
| 2026-05-06 00:14 | 33.94041 | -118.35269 | 638 ft | 134 kts | 262° |
| 2026-05-06 00:14 | 33.93928 | -118.36383 | 470 ft | 132 kts | 264° |
| 2026-05-06 00:14 | 33.93819 | -118.37477 | 283 ft | 133 kts | 260° |
| 2026-05-06 00:15 | 33.93707 | -118.38581 | 126 ft | 132 kts | 259° |
| 2026-05-06 00:15 | 33.93597 | -118.39600 | 96 ft | 109 kts | 262° |
| 2026-05-06 00:15 | 33.93533 | -118.40266 | 96 ft | 44 kts | 266° |
| 2026-05-06 00:15 | 33.93565 | -118.40549 | 97 ft | 21 kts | 289° |
| 2026-05-06 00:16 | 33.93598 | -118.40708 | 95 ft | 20 kts | 270° |
| 2026-05-06 00:16 | 33.93620 | -118.40864 | 96 ft | 16 kts | 311° |
| 2026-05-06 00:16 | 33.93716 | -118.40903 | 96 ft | 16 kts | 353° |
| 2026-05-06 00:16 | 33.93772 | -118.40895 | 94 ft | 9 kts | 38° |
| 2026-05-06 00:17 | 33.93793 | -118.40818 | 94 ft | 11 kts | 82° |
| 2026-05-06 00:17 | 33.93798 | -118.40776 | 97 ft | 1 kts | 81° |
| 2026-05-06 00:17 | 33.93814 | -118.40750 | 96 ft | 7 kts | 37° |
| 2026-05-06 00:17 | 33.93874 | -118.40752 | 95 ft | 10 kts | 326° |
| 2026-05-06 00:18 | 33.93919 | -118.40802 | 94 ft | 8 kts | 321° |
| 2026-05-06 00:18 | 33.93952 | -118.40814 | 95 ft | 1 kts | 6° |
| 2026-05-06 00:18 | 33.93960 | -118.40803 | 94 ft | 2 kts | 57° |
| 2026-05-06 00:18 | 33.93968 | -118.40772 | 95 ft | 1 kts | 71° |
| 2026-05-06 00:19 | 33.93974 | -118.40751 | 94 ft | 3 kts | 70° |
| 2026-05-06 00:19 | 33.93980 | -118.40732 | 93 ft | 1 kts | 70° |
| 2026-05-06 00:19 | 33.93980 | -118.40731 | 93 ft | 0 kts | 70° |